createdAt,value
2019-01-08T00:01:43.431Z,100330.53
2019-01-08T00:04:16.331Z,100322.98
2019-01-08T00:06:48.648Z,100311.83
2019-01-08T00:09:20.185Z,100287.84
2019-01-08T00:11:50.748Z,100256.92
2019-01-08T00:14:21.548Z,100281.30
2019-01-08T00:16:52.041Z,100276.61
2019-01-08T00:19:22.436Z,100268.66
2019-01-08T00:21:52.837Z,100270.27
2019-01-08T00:24:23.131Z,100271.36
2019-01-08T00:26:54.316Z,100263.96
2019-01-08T00:29:24.764Z,100249.83
2019-01-08T00:31:55.089Z,100236.91
2019-01-08T00:34:25.933Z,100240.02
2019-01-08T00:36:56.242Z,100236.39
2019-01-08T00:39:27.020Z,100235.84
2019-01-08T00:41:57.907Z,100242.58
2019-01-08T00:44:28.302Z,100233.80
2019-01-08T00:46:58.680Z,100227.25
2019-01-08T00:49:29.522Z,100216.48
2019-01-08T00:51:59.874Z,100216.77
2019-01-08T00:54:30.337Z,100208.24
2019-01-08T00:57:01.663Z,100198.88
2019-01-08T00:59:32.594Z,100185.97
2019-01-08T01:02:03.889Z,100187.09
2019-01-08T01:04:34.251Z,100179.00
2019-01-08T01:07:04.647Z,100166.66
2019-01-08T01:09:35.016Z,100150.06
2019-01-08T01:12:05.292Z,100150.34
2019-01-08T01:14:36.168Z,100144.63
2019-01-08T01:17:07.058Z,100131.94
2019-01-08T01:19:37.409Z,100122.31
2019-01-08T01:22:07.804Z,100091.89
2019-01-08T01:24:38.196Z,100097.67
2019-01-08T01:27:08.489Z,100092.64
2019-01-08T01:29:38.898Z,100091.90
2019-01-08T01:32:09.241Z,100083.30
2019-01-08T01:34:39.651Z,100071.50
2019-01-08T01:37:10.088Z,100075.27
2019-01-08T01:39:40.499Z,100067.97
2019-01-08T01:42:10.770Z,100063.65
2019-01-08T01:44:41.881Z,100071.71
2019-01-08T01:47:12.231Z,100059.72
2019-01-08T01:49:42.579Z,100047.17
2019-01-08T01:52:12.989Z,100039.70
2019-01-08T01:54:43.310Z,100027.52
2019-01-08T01:57:13.676Z,100047.37
2019-01-08T01:59:44.426Z,100030.53
2019-01-08T02:02:14.836Z,100026.20
2019-01-08T02:04:45.235Z,100019.56
2019-01-08T02:07:16.012Z,100009.73
2019-01-08T02:09:46.308Z,100002.06
2019-01-08T02:12:16.652Z,99996.26
2019-01-08T02:14:47.205Z,99980.52
2019-01-08T02:17:17.577Z,99968.92
2019-01-08T02:19:47.899Z,99964.81
2019-01-08T02:22:38.737Z,99983.42
2019-01-08T02:25:09.016Z,99959.77
2019-01-08T02:27:39.418Z,99963.09
2019-01-08T02:30:10.367Z,99954.52
2019-01-08T02:32:41.202Z,99951.30
2019-01-08T02:35:11.572Z,99950.45
2019-01-08T02:37:41.852Z,99923.20
2019-01-08T02:40:12.222Z,99930.77
2019-01-08T02:42:42.580Z,99924.48
2019-01-08T02:45:12.863Z,99923.05
2019-01-08T02:47:43.256Z,99924.66
2019-01-08T02:50:13.652Z,99925.22
2019-01-08T02:52:44.379Z,99924.63
2019-01-08T02:55:14.733Z,99917.78
2019-01-08T02:57:45.722Z,99914.39
2019-01-08T03:00:16.056Z,99907.70
2019-01-08T03:02:46.439Z,99895.22
2019-01-08T03:05:16.818Z,99896.95
2019-01-08T03:07:47.066Z,99889.83
2019-01-08T03:10:17.448Z,99882.38
2019-01-08T03:12:48.907Z,99875.67
2019-01-08T03:15:19.346Z,99860.97
2019-01-08T03:17:49.617Z,99866.59
2019-01-08T03:20:20.081Z,99858.00
2019-01-08T03:22:50.886Z,99855.61
2019-01-08T03:25:21.577Z,99853.27
2019-01-08T03:27:51.961Z,99849.64
2019-01-08T03:30:22.336Z,99849.85
2019-01-08T03:32:52.969Z,99848.89
2019-01-08T03:35:23.334Z,99855.45
2019-01-08T03:37:53.703Z,99857.85
2019-01-08T03:40:24.053Z,99862.41
2019-01-08T03:42:54.421Z,99846.48
2019-01-08T03:45:24.700Z,99850.18
2019-01-08T03:47:55.091Z,99833.23
2019-01-08T03:50:25.394Z,99832.20
2019-01-08T03:52:55.852Z,99836.76
2019-01-08T03:55:26.885Z,99825.80
2019-01-08T03:57:58.799Z,99816.64
2019-01-08T04:00:29.519Z,99811.68
2019-01-08T04:03:00.789Z,99799.11
2019-01-08T04:05:31.597Z,99803.13
2019-01-08T04:08:01.918Z,99785.83
2019-01-08T04:10:35.256Z,99783.88
2019-01-08T04:13:05.956Z,99779.42
2019-01-08T04:15:36.303Z,99773.91
2019-01-08T04:18:06.631Z,99771.71
2019-01-08T04:20:37.490Z,99777.70
2019-01-08T04:23:07.930Z,99763.05
2019-01-08T04:25:38.233Z,99764.04
2019-01-08T04:28:08.645Z,99758.17
2019-01-08T04:30:38.914Z,99741.44
2019-01-08T04:33:09.286Z,99742.26
2019-01-08T04:35:39.676Z,99734.66
2019-01-08T04:38:10.113Z,99727.88
2019-01-08T04:40:40.844Z,99727.88
2019-01-08T04:43:13.938Z,99724.11
2019-01-08T04:45:44.280Z,99716.37
2019-01-08T04:48:14.597Z,99722.92
2019-01-08T04:50:45.003Z,99722.52
2019-01-08T04:53:15.315Z,99705.87
2019-01-08T04:56:18.354Z,99717.33
2019-01-08T04:58:49.022Z,99712.37
2019-01-08T05:01:19.421Z,99699.24
2019-01-08T05:03:49.827Z,99695.38
2019-01-08T05:06:20.206Z,99697.70
2019-01-08T05:08:51.017Z,99685.73
2019-01-08T05:11:21.728Z,99678.92
2019-01-08T05:13:52.007Z,99678.19
2019-01-08T05:16:22.440Z,99664.91
2019-01-08T05:18:53.808Z,99663.31
2019-01-08T05:21:24.269Z,99667.47
2019-01-08T05:23:55.021Z,99654.25
2019-01-08T05:26:25.749Z,99645.56
2019-01-08T05:28:56.188Z,99643.75
2019-01-08T05:31:26.590Z,99648.81
2019-01-08T05:33:56.993Z,99649.25
2019-01-08T05:36:27.952Z,99632.19
2019-01-08T05:38:58.663Z,99632.92
2019-01-08T05:41:29.149Z,99624.83
2019-01-08T05:43:59.467Z,99608.77
2019-01-08T05:46:30.149Z,99614.06
2019-01-08T05:49:00.621Z,99612.31
2019-01-08T05:51:30.903Z,99602.12
2019-01-08T05:54:01.748Z,99600.03
2019-01-08T05:56:32.051Z,99593.54
2019-01-08T05:59:03.274Z,99599.77
2019-01-08T06:01:33.894Z,99590.44
2019-01-08T06:04:04.838Z,99597.95
2019-01-08T06:06:35.115Z,99595.33
2019-01-08T06:09:06.718Z,99586.82
2019-01-08T06:11:37.402Z,99596.31
2019-01-08T06:14:11.398Z,99594.38
2019-01-08T06:16:41.890Z,99582.77
2019-01-08T06:19:12.272Z,99589.76
2019-01-08T06:21:42.641Z,99578.47
2019-01-08T06:24:12.971Z,99578.23
2019-01-08T06:26:44.045Z,99566.46
2019-01-08T06:29:14.382Z,99550.19
2019-01-08T06:31:44.657Z,99550.41
2019-01-08T06:34:15.024Z,99558.66
2019-01-08T06:36:45.905Z,99544.59
2019-01-08T06:39:16.204Z,99529.97
2019-01-08T06:41:46.580Z,99519.70
2019-01-08T06:44:17.464Z,99520.24
2019-01-08T06:46:47.818Z,99529.22
2019-01-08T06:49:19.092Z,99518.56
2019-01-08T06:51:49.464Z,99515.25
2019-01-08T06:54:19.862Z,99502.22
2019-01-08T06:56:50.713Z,99493.02
2019-01-08T06:59:21.091Z,99498.73
2019-01-08T07:01:51.539Z,99479.33
2019-01-08T07:04:21.887Z,99488.77
2019-01-08T07:06:52.451Z,99488.55
2019-01-08T07:09:22.770Z,99486.42
2019-01-08T07:11:53.175Z,99471.22
2019-01-08T07:14:23.593Z,99475.05
2019-01-08T07:16:54.303Z,99463.86
2019-01-08T07:19:24.647Z,99465.08
2019-01-08T07:21:55.201Z,99472.55
2019-01-08T07:24:27.585Z,99470.66
2019-01-08T07:26:57.761Z,99463.05
2019-01-08T07:30:00.851Z,99460.79
2019-01-08T07:32:31.329Z,99458.28
2019-01-08T07:35:01.750Z,99446.80
2019-01-08T07:37:32.136Z,99445.02
2019-01-08T07:40:02.523Z,99420.91
2019-01-08T07:42:33.073Z,99446.36
2019-01-08T07:45:04.309Z,99439.89
2019-01-08T07:47:34.949Z,99434.64
2019-01-08T07:50:05.517Z,99439.66
2019-01-08T07:52:36.456Z,99439.02
2019-01-08T07:55:06.972Z,99400.50
2019-01-08T07:57:37.454Z,99421.27
2019-01-08T08:00:08.505Z,99415.78
2019-01-08T08:02:38.897Z,99414.59
2019-01-08T08:05:09.783Z,99406.63
2019-01-08T08:07:40.256Z,99372.59
2019-01-08T08:10:10.618Z,99406.70
2019-01-08T08:12:41.460Z,99408.89
2019-01-08T08:15:14.046Z,99401.88
2019-01-08T08:17:44.487Z,99385.41
2019-01-08T08:20:14.918Z,99402.81
2019-01-08T08:22:45.847Z,99411.02
2019-01-08T08:25:19.617Z,99399.70
2019-01-08T08:27:54.337Z,99400.86
2019-01-08T08:30:26.279Z,99394.62
2019-01-08T08:32:56.999Z,99389.88
2019-01-08T08:35:27.360Z,99389.01
2019-01-08T08:37:57.623Z,99393.09
2019-01-08T08:40:28.348Z,99369.92
2019-01-08T08:42:58.669Z,99378.67
2019-01-08T08:45:29.071Z,99377.59
2019-01-08T08:47:59.696Z,99382.81
2019-01-08T08:50:30.120Z,99371.68
2019-01-08T08:53:00.587Z,99363.09
2019-01-08T08:55:31.312Z,99377.73
2019-01-08T08:58:01.650Z,99354.52
2019-01-08T09:00:32.097Z,99363.98
2019-01-08T09:03:02.467Z,99364.59
2019-01-08T09:05:33.015Z,99353.11
2019-01-08T09:08:03.823Z,99347.08
2019-01-08T09:10:34.352Z,99348.94
2019-01-08T09:13:05.744Z,99326.16
2019-01-08T09:15:36.151Z,99353.34
2019-01-08T09:18:06.470Z,99340.73
2019-01-08T09:20:37.189Z,99317.25
2019-01-08T09:23:08.637Z,99335.89
2019-01-08T09:25:39.533Z,99326.57
2019-01-08T09:28:09.978Z,99326.34
2019-01-08T09:30:40.333Z,99303.89
2019-01-08T09:33:11.107Z,99313.70
2019-01-08T09:35:41.442Z,99299.33
2019-01-08T09:38:11.751Z,99298.27
2019-01-08T09:40:42.655Z,99286.94
2019-01-08T09:43:15.661Z,99270.37
2019-01-08T09:45:46.440Z,99283.11
2019-01-08T09:48:17.123Z,99289.81
2019-01-08T09:50:54.072Z,99264.83
2019-01-08T09:53:30.406Z,99274.91
2019-01-08T09:56:03.991Z,99243.06
2019-01-08T09:58:37.931Z,99213.63
2019-01-08T10:01:09.075Z,99242.61
2019-01-08T10:03:55.260Z,99231.15
2019-01-08T10:06:25.769Z,99231.52
2019-01-08T10:08:56.123Z,99218.38
2019-01-08T10:11:26.496Z,99227.94
2019-01-08T10:13:56.928Z,99203.23
2019-01-08T10:16:27.274Z,99204.06
2019-01-08T10:18:57.743Z,99210.63
2019-01-08T10:21:28.138Z,99208.26
2019-01-08T10:23:58.661Z,99197.38
2019-01-08T10:26:29.026Z,99192.73
2019-01-08T10:28:59.329Z,99195.82
2019-01-08T10:31:32.527Z,99181.25
2019-01-08T10:34:01.785Z,99167.41
2019-01-08T10:36:32.238Z,99154.79
2019-01-08T10:39:02.550Z,99155.71
2019-01-08T10:41:32.962Z,99148.81
2019-01-08T10:44:03.337Z,99136.14
2019-01-08T10:46:37.598Z,99107.91
2019-01-08T10:49:06.267Z,99117.67
2019-01-08T10:51:37.204Z,99108.59
2019-01-08T10:54:07.702Z,99106.64
2019-01-08T10:56:38.167Z,99086.37
2019-01-08T10:59:09.055Z,99084.45
2019-01-08T11:01:40.612Z,99069.38
2019-01-08T11:04:11.270Z,99081.81
2019-01-08T11:06:41.692Z,99073.91
2019-01-08T11:09:13.363Z,99053.74
2019-01-08T11:11:43.790Z,99057.90
2019-01-08T11:14:14.185Z,99049.84
2019-01-08T11:16:44.542Z,99066.61
2019-01-08T11:19:15.426Z,99049.35
2019-01-08T11:21:46.460Z,99064.09
2019-01-08T11:24:16.897Z,99049.48
2019-01-08T11:26:47.255Z,99050.94
2019-01-08T11:29:17.783Z,99053.23
2019-01-08T11:31:57.577Z,99049.52
2019-01-08T11:34:27.981Z,99045.38
2019-01-08T11:36:58.465Z,99030.49
2019-01-08T11:39:28.950Z,99030.94
2019-01-08T11:41:59.597Z,99041.77
2019-01-08T11:44:30.029Z,99031.99
2019-01-08T11:47:00.440Z,98992.89
2019-01-08T11:49:30.826Z,99008.95
2019-01-08T11:52:01.262Z,99003.70
2019-01-08T11:54:40.896Z,99010.86
2019-01-08T11:57:07.646Z,99005.47
2019-01-08T11:59:38.287Z,99008.35
2019-01-08T12:02:08.895Z,99015.58
2019-01-08T12:04:39.789Z,99004.01
2019-01-08T12:07:10.848Z,99002.09
2019-01-08T12:09:41.241Z,98976.03
2019-01-08T12:12:11.537Z,98992.86
2019-01-08T12:14:44.083Z,98979.00
2019-01-08T12:17:15.087Z,98997.48
2019-01-08T12:19:45.490Z,99011.30
2019-01-08T12:22:16.322Z,98993.39
2019-01-08T12:24:46.822Z,99000.98
2019-01-08T12:27:17.450Z,98980.22
2019-01-08T12:29:47.863Z,98994.39
2019-01-08T12:32:21.643Z,98979.66
2019-01-08T12:34:52.241Z,98975.41
2019-01-08T12:37:47.900Z,98992.84
2019-01-08T12:40:18.208Z,98988.70
2019-01-08T12:42:50.843Z,98976.95
2019-01-08T12:45:21.162Z,98986.52
2019-01-08T12:47:51.558Z,98985.25
2019-01-08T12:50:22.611Z,98991.73
2019-01-08T12:52:53.047Z,98991.71
2019-01-08T12:55:23.396Z,98993.77
2019-01-08T12:57:54.212Z,98972.62
2019-01-08T13:00:24.713Z,98976.12
2019-01-08T13:02:56.332Z,98981.14
2019-01-08T13:05:27.295Z,98971.34
2019-01-08T13:07:58.325Z,98968.17
2019-01-08T13:10:29.236Z,98959.66
2019-01-08T13:12:59.876Z,98978.38
2019-01-08T13:15:30.834Z,98977.54
2019-01-08T13:18:01.391Z,98969.48
2019-01-08T13:20:32.480Z,98978.48
2019-01-08T13:23:03.021Z,98963.26
2019-01-08T13:25:33.552Z,98965.89
2019-01-08T13:28:04.579Z,98965.44
2019-01-08T13:30:35.096Z,98973.97
2019-01-08T13:33:05.586Z,98978.65
2019-01-08T13:35:39.078Z,98972.55
2019-01-08T13:38:09.722Z,98953.83
2019-01-08T13:40:41.657Z,98968.92
2019-01-08T13:43:12.130Z,98975.40
2019-01-08T13:45:43.212Z,98943.34
2019-01-08T13:48:17.168Z,98948.94
2019-01-08T13:50:47.629Z,98936.03
2019-01-08T13:56:07.764Z,98948.19
2019-01-08T13:58:39.466Z,98940.02
2019-01-08T14:01:12.850Z,98945.80
2019-01-08T14:03:43.217Z,98945.17
2019-01-08T14:06:13.739Z,98961.27
2019-01-08T14:08:45.286Z,98961.41
2019-01-08T14:11:15.890Z,98926.74
2019-01-08T14:13:46.374Z,98987.50
2019-01-08T14:16:17.057Z,98997.43
2019-01-08T14:18:50.191Z,98993.12
2019-01-08T14:21:21.046Z,98972.67
2019-01-08T14:23:52.182Z,98977.94
2019-01-08T14:26:22.904Z,98991.52
2019-01-08T14:28:53.493Z,98967.58
2019-01-08T14:31:23.898Z,98991.05
2019-01-08T14:33:54.992Z,98982.80
2019-01-08T14:36:25.387Z,98975.19
2019-01-08T14:38:55.743Z,98967.91
2019-01-08T14:41:26.189Z,98971.95
2019-01-08T14:43:58.278Z,98985.07
2019-01-08T14:46:30.384Z,98981.97
2019-01-08T14:49:00.840Z,98986.63
2019-01-08T14:51:31.423Z,98969.57
2019-01-08T14:54:04.577Z,98971.67
2019-01-08T14:56:49.580Z,98970.63
2019-01-08T14:59:20.145Z,98964.05
2019-01-08T15:01:51.598Z,98969.75
2019-01-08T15:04:22.192Z,98975.78
2019-01-08T15:06:52.469Z,98982.63
2019-01-08T15:09:23.305Z,98982.03
2019-01-08T15:11:54.776Z,98983.72
2019-01-08T15:14:25.174Z,98986.92
2019-01-08T15:16:57.073Z,98987.52
2019-01-08T15:19:27.420Z,98990.27
2019-01-08T15:21:57.881Z,98981.17
2019-01-08T15:24:28.225Z,98985.48
2019-01-08T15:27:00.752Z,98970.00
2019-01-08T15:29:31.097Z,98981.08
2019-01-08T15:32:01.601Z,98984.36
2019-01-08T15:34:32.054Z,98988.69
2019-01-08T15:37:02.979Z,98979.83
2019-01-08T15:39:34.365Z,98981.48
2019-01-08T15:42:07.774Z,98983.38
2019-01-08T15:44:39.129Z,98984.92
2019-01-08T15:47:09.516Z,98977.05
2019-01-08T15:49:43.441Z,98975.55
2019-01-08T15:52:13.812Z,98981.48
2019-01-08T15:54:44.156Z,98957.37
2019-01-08T15:57:14.678Z,98979.34
2019-01-08T15:59:45.006Z,98990.32
2019-01-08T16:02:15.923Z,98955.03
2019-01-08T16:04:46.232Z,98963.63
2019-01-08T16:07:16.694Z,98971.48
2019-01-08T16:09:48.812Z,98979.84
2019-01-08T16:12:19.892Z,98971.13
2019-01-08T16:14:50.798Z,98974.84
2019-01-08T16:17:21.202Z,98973.75
2019-01-08T16:19:51.570Z,98972.42
2019-01-08T16:22:22.373Z,98953.92
2019-01-08T16:24:52.987Z,98965.52
2019-01-08T16:30:29.991Z,98969.06
2019-01-08T16:33:01.594Z,98968.02
2019-01-08T16:35:33.221Z,98972.70
2019-01-08T16:38:03.708Z,98969.30
2019-01-08T16:40:34.142Z,98968.70
2019-01-08T16:43:08.839Z,98966.95
2019-01-08T16:45:39.443Z,98970.30
2019-01-08T16:48:11.168Z,98974.10
2019-01-08T16:50:44.020Z,98972.91
2019-01-08T16:53:16.453Z,98964.92
2019-01-08T16:55:47.088Z,98964.32
2019-01-08T16:58:18.782Z,98955.86
2019-01-08T17:00:50.210Z,98953.72
2019-01-08T17:03:25.583Z,98959.08
2019-01-08T17:05:54.066Z,98949.33
2019-01-08T17:08:26.289Z,98956.34
2019-01-08T17:10:56.670Z,98966.23
2019-01-08T17:13:27.622Z,98958.03
2019-01-08T17:15:58.340Z,98957.42
2019-01-08T17:18:28.751Z,98960.43
2019-01-08T17:21:01.193Z,98956.70
2019-01-08T17:23:31.602Z,98960.06
2019-01-08T17:26:02.297Z,98960.45
2019-01-08T17:28:32.770Z,98961.03
2019-01-08T17:31:03.420Z,98963.87
2019-01-08T17:33:34.340Z,98962.73
2019-01-08T17:36:04.648Z,98964.84
2019-01-08T17:38:36.181Z,98958.42
2019-01-08T17:41:07.021Z,98959.86
2019-01-08T17:43:37.488Z,98965.48
2019-01-08T17:46:10.203Z,98960.83
2019-01-08T17:48:41.278Z,98954.16
2019-01-08T17:51:12.301Z,98924.73
2019-01-08T17:53:43.295Z,98968.35
2019-01-08T17:56:13.796Z,98960.95
2019-01-08T17:58:46.161Z,98973.96
2019-01-08T18:01:30.573Z,98981.59
2019-01-08T18:04:00.925Z,98982.30
2019-01-08T18:06:31.538Z,98971.82
2019-01-08T18:09:02.413Z,98991.09
2019-01-08T18:11:34.832Z,98974.33
2019-01-08T18:14:05.361Z,98970.02
2019-01-08T18:16:35.982Z,98996.69
2019-01-08T18:19:07.097Z,98983.72
2019-01-08T18:21:37.995Z,98967.53
2019-01-08T18:24:08.376Z,98989.55
2019-01-08T18:26:40.126Z,98998.96
2019-01-08T18:29:12.754Z,98953.96
2019-01-08T18:31:43.345Z,98987.29
2019-01-08T18:34:14.107Z,98984.21
2019-01-08T18:36:44.832Z,98993.84
2019-01-08T18:39:15.212Z,98994.44
2019-01-08T18:41:50.013Z,98996.59
2019-01-08T18:44:21.119Z,99002.76
2019-01-08T18:46:52.026Z,99010.36
2019-01-08T18:49:24.075Z,99012.73
2019-01-08T18:51:55.982Z,99004.98
2019-01-08T18:54:28.188Z,98997.23
2019-01-08T18:56:58.871Z,99009.48
2019-01-08T18:59:29.197Z,99011.70
2019-01-08T19:01:59.579Z,99001.59
2019-01-08T19:04:29.922Z,99006.24
2019-01-08T19:07:00.285Z,99010.42
2019-01-08T19:09:41.217Z,99009.93
2019-01-08T19:12:20.795Z,99008.38
2019-01-08T19:14:51.961Z,98993.06
2019-01-08T19:17:22.828Z,98995.80
2019-01-08T19:19:53.646Z,99005.33
2019-01-08T19:22:24.213Z,99003.39
2019-01-08T19:24:59.713Z,98993.23
2019-01-08T19:27:30.497Z,98988.58
2019-01-08T19:30:00.952Z,99005.45
2019-01-08T19:32:35.795Z,98978.80
2019-01-08T19:35:06.241Z,99001.73
2019-01-08T19:37:36.527Z,98992.92
2019-01-08T19:40:07.540Z,98992.34
2019-01-08T19:42:38.402Z,98992.58
2019-01-08T19:45:09.429Z,98997.20
2019-01-08T19:47:39.870Z,98986.97
2019-01-08T19:50:14.378Z,99009.70
2019-01-08T19:52:44.773Z,99006.93
2019-01-08T19:55:15.064Z,99010.70
2019-01-08T19:57:46.560Z,99017.97
2019-01-08T20:00:17.025Z,99016.17
2019-01-08T20:02:47.657Z,99010.36
2019-01-08T20:05:18.697Z,99019.63
2019-01-08T20:07:49.585Z,99010.63
2019-01-08T20:10:20.002Z,99018.12
2019-01-08T20:12:50.344Z,99009.17
2019-01-08T20:15:20.771Z,99008.59
2019-01-08T20:18:26.233Z,99006.35
2019-01-08T20:20:56.894Z,99026.31
2019-01-08T20:23:27.386Z,99036.42
2019-01-08T20:25:57.836Z,99033.81
2019-01-08T20:28:28.277Z,99030.93
2019-01-08T20:31:00.206Z,99041.51
2019-01-08T20:33:30.643Z,99040.23
2019-01-08T20:36:03.372Z,99032.63
2019-01-08T20:38:33.733Z,99027.88
2019-01-08T20:41:04.062Z,99018.96
2019-01-08T20:43:35.037Z,99020.16
2019-01-08T20:46:06.572Z,99026.34
2019-01-08T20:48:40.942Z,99033.73
2019-01-08T20:51:12.874Z,99028.27
2019-01-08T20:53:46.464Z,99019.84
2019-01-08T20:56:20.905Z,99044.30
2019-01-08T20:58:51.388Z,99030.30
2019-01-08T21:01:22.372Z,99047.00
2019-01-08T21:03:53.004Z,99035.62
2019-01-08T21:06:23.354Z,99039.39
2019-01-08T21:08:53.784Z,99042.97
2019-01-08T21:11:24.169Z,99036.28
2019-01-08T21:13:57.960Z,99040.55
2019-01-08T21:16:28.828Z,99042.16
2019-01-08T21:18:59.341Z,99042.43
2019-01-08T21:21:29.861Z,99043.55
2019-01-08T21:24:07.925Z,99053.81
2019-01-08T21:26:38.387Z,99017.25
2019-01-08T21:29:20.430Z,99050.61
2019-01-08T21:31:50.794Z,99031.31
2019-01-08T21:37:15.960Z,99063.61
2019-01-08T21:39:46.264Z,99041.74
2019-01-08T21:42:16.872Z,99059.85
2019-01-08T21:44:47.761Z,99039.53
2019-01-08T21:47:18.914Z,99067.25
2019-01-08T21:49:50.053Z,99062.09
2019-01-08T21:52:20.670Z,99060.20
2019-01-08T21:54:51.068Z,99034.53
2019-01-08T21:57:22.217Z,99053.63
2019-01-08T21:59:52.642Z,99075.20
2019-01-08T22:02:24.638Z,99066.22
2019-01-08T22:04:55.573Z,99053.90
2019-01-08T22:07:25.947Z,99069.57
2019-01-08T22:09:56.893Z,99077.23
2019-01-08T22:12:27.320Z,99070.25
2019-01-08T22:15:00.504Z,99062.52
2019-01-08T22:17:30.971Z,99066.22
2019-01-08T22:20:01.781Z,99068.16
2019-01-08T22:22:32.616Z,99064.21
2019-01-08T22:25:02.908Z,99075.33
2019-01-08T22:27:33.822Z,99068.25
2019-01-08T22:30:04.762Z,99067.16
2019-01-08T22:32:36.180Z,99080.08
2019-01-08T22:35:06.959Z,99070.92
2019-01-08T22:37:37.878Z,99081.51
2019-01-08T22:40:10.209Z,99091.38
2019-01-08T22:42:41.065Z,99091.80
2019-01-08T22:45:11.426Z,99083.55
2019-01-08T22:47:41.868Z,99094.56
2019-01-08T22:50:17.076Z,99092.36
2019-01-08T22:52:48.276Z,99094.59
2019-01-08T22:55:19.648Z,99085.20
2019-01-08T22:57:50.150Z,99093.13
2019-01-08T23:00:39.184Z,99085.77
2019-01-08T23:03:10.339Z,99082.95
2019-01-08T23:05:41.064Z,99091.80
2019-01-08T23:08:12.068Z,99087.69
2019-01-08T23:10:42.552Z,99077.23
2019-01-08T23:13:13.055Z,99080.19
2019-01-08T23:15:44.236Z,99070.30
2019-01-08T23:18:14.610Z,99073.08
2019-01-08T23:20:49.140Z,99071.53
2019-01-08T23:23:19.500Z,99090.59
2019-01-08T23:25:49.915Z,99081.95
2019-01-08T23:28:20.430Z,99090.14
2019-01-08T23:30:50.866Z,99091.36
2019-01-08T23:33:21.346Z,99092.21
2019-01-08T23:35:52.197Z,99100.49
2019-01-08T23:38:25.216Z,99103.10
2019-01-08T23:40:55.535Z,99096.78
2019-01-08T23:43:25.900Z,99099.95
2019-01-08T23:45:56.356Z,99101.18
2019-01-08T23:48:26.714Z,99104.84
2019-01-08T23:50:57.823Z,99100.19
2019-01-08T23:53:40.661Z,99097.19
2019-01-08T23:56:11.912Z,99094.44
2019-01-08T23:58:42.746Z,99103.48
